Menfro, Missouri
Current Conditions -  °F | °C
As of 4:35 AM on Saturday 25 Oct 2014 (Local Time) from KSAR Reporting Station
Clear Clear  
Wind Chill: 58°   Ceiling: Unl
Heat Index: 58°   Visibility: 10mi
Dew Point: 55°   Wind: 3mph
Humidity: 89%   Direction: 200°SSW
Pressure: 30"   Gusts: NA
Location:  37.7768°N, 89.7232°W
Report Text: KSAR 250935Z AUTO 20003KT 10SM CLR 15/13 A3000 RMK AO2 T01450127
Loading
Personal Weather Stations






























Interactive Weather Map
Tropical Storm Tracking
New forecast layout! Learn more

10-Day Weather Forecast

Advertisements
Track Severe Weather on mobile